Flagstaff, AZ (86001)

3:30 PM MST on September 03, 2015 (GMT -0700)
University Highlands | | Change Station
CLOSE
Current Station
Personal Weather Station
Location: Flagstaff, AZ
Elevation: 7067 ft
Nearby Weather Stations
Active Advisory: Areal Flood Advisory

Elev 7067 ft 35.17 °N, 111.68 °W | Updated 29 seconds ago

Clear
Clear
75.6 °F
Feels Like 77 °F
N
1.8
Wind Variable Wind from SW
Gusts 2.5 mph

Today
High -- | Low -- °F
--% Chance of Precip.
Yesterday
High -- | Low -- °F
Precip. -- in
6:00 AM 6:50 PM
Waning Gibbous, 66% visible
Pressure 29.93 in
Visibility 10.0 miles
Clouds Few 6000 ft
Heat Index 77 °F
Dew Point 44 °F
Humidity 32%
Rainfall 0.00 in
Snow Depth Not available.
UV 2.0 out of 12
Pollen 4.10 out of 12
Air Quality Not available.
Flu Activity Not available.
METAR KFLG 032157Z 22016G21KT 10SM FEW060 23/07 A3019 RMK AO2 WSHFT 2047 SLP134 T02280072
Pressure 29.93 in
Visibility 10.0 miles
Clouds Few 6000 ft
Heat Index 77 °F
Dew Point 44 °F
Humidity 32%
Rainfall 0.00 in
Snow Depth Not available.
UV 2.0 out of 12
Pollen 4.10 out of 12
Air Quality Not available.
Flu Activity Not available.
METAR KFLG 032157Z 22016G21KT 10SM FEW060 23/07 A3019 RMK AO2 WSHFT 2047 SLP134 T02280072

10-Day Weather Forecast

×

Almanac

Astronomy

Sep. 03, 2015 Rise Set
Actual Time
Civil Twilight
Nautical Twilight
Astronomical Twilight
Moon
Length of Visible Light
Length of Day
Tomorrow will be .
, % of the Moon is Illuminated

Today's Extremes

State Highs State Lows

Community

WunderPhotos

Upload Photos

1,852,049 photos uploaded!

WunderBlogs® & News

Nearby

Air Quality

  Air Quality AQ Index Pollutant
Not available.

Snow Depth

Station Depth Elevation

Earthquake Activity

City Distance Mag. Time & Date
Minimum magnitude displayed is 2.5.

Coastal Water Temperatures

Place Temperature

Stations

Nearby Weather Stations

Station Location Temp. Windchill Dew Point Humidity Wind Precip. Elev Updated Type
                   
Areal Flood Advisory
Statement as of 2:28 PM MDT on September 03, 2015

The National Weather Service in Flagstaff has issued a

* small stream Flood Advisory for...
central Gila County in east central Arizona...
southeastern Coconino County in north central Arizona...
southwestern Navajo County in northeastern Arizona...

* until 530 PM MST

* at 225 PM MST... Doppler radar indicated heavy rain due to
thunderstorms in an area about 20 miles southwest of Heber-
Overgaard. Up to two inches of rain have already fallen and will
cause small stream flooding. Most of this water will flow
southward into Canyon Creek.

* Flooding will remain over mainly rural areas of central Gila...
southeastern Coconino and southwestern Navajo counties.

This includes the following streams and drainages... Oak Creek...
Spring Creek... Canyon creek... Carrizo creek... Salt Creek... Cibecue
Creek... Bear Creek and Foot Canyon.

Lat... Lon 3422 11051 3413 11069 3391 11066 3390 11071
      3412 11079 3428 11075 3430 11062


Rr